Search for airport 
image banner adimage banner adimage banner ad
image banner ad

SCEB - Entrada Baker

Located in Entrada Baker, Chile

ICAO - SCEB, IATA -

Data provided by Airmate  

General information

Coordinates: S47°11'3" W71°58'34"
Elevation is 1640 feet MSL.
 
View others Airports in Aisén del General Carlos Ibañez

Operational data

Special qualification required
Current time UTC:
Current local time:
Weather at : SCHR - Cochrane ( 47 km )
METAR: SCHR 052100Z 33009KT CAVOK 07/01 Q1022
View NOTAMs / SUP AIP / TFR affecting this airport [VIEW]
Communications frequencies: [VIEW]

Runways:

RWY identifierQFULength (ft)Width (ft)SurfaceLDA (ft)
12138°229759DIRT
30318°229759DIRT

Airport contact information

Address: Entrada Baker Chile

Satellite view of SCEB